Time;durP1;ratioP1;P1;durP2;ratioP2;P2;SDS_P1;SDS_P2;PMS_P1;PMS_P2;Temp;Humidity;BMP_temperature;BMP_pressure;BME280_temperature;BME280_humidity;BME280_pressure;Samples;Min_cycle;Max_cycle;Signal;HPM_P1;HPM_P2
2021/12/11 00:03:58;;;;;;;69.57;24.33;;;;;;;;;;8451447;28;20070;-75
2021/12/11 00:08:02;;;;;;;72.57;27.85;;;;;;;;;;8454537;28;20054;-74
2021/12/11 00:12:08;;;;;;;106.85;35.13;;;;;;;;;;8448177;28;20059;-74
2021/12/11 00:16:17;;;;;;;81.38;27.48;;;;;;;;;;8432379;28;20044;-75
2021/12/11 00:20:24;;;;;;;117.15;35.15;;;;;;;;;;8440247;28;20127;-74
2021/12/11 00:24:30;;;;;;;104.65;31.23;;;;;;;;;;8446074;28;20052;-75
2021/12/11 00:28:33;;;;;;;90.85;28.58;;;;;;;;;;8432392;28;20510;-75
2021/12/11 00:32:38;;;;;;;60.55;25.13;;;;;;;;;;8436868;28;20043;-76
2021/12/11 00:36:51;;;;;;;64.20;23.70;;;;;;;;;;8460713;28;20043;-74
2021/12/11 00:40:56;;;;;;;55.42;23.13;;;;;;;;;;8449697;28;20055;-76
2021/12/11 00:45:00;;;;;;;65.90;23.02;;;;;;;;;;8458497;28;20048;-75
2021/12/11 00:49:15;;;;;;;60.60;25.05;;;;;;;;;;8443670;28;20047;-76
2021/12/11 00:53:23;;;;;;;58.17;20.83;;;;;;;;;;8447794;28;20047;-75
2021/12/11 00:57:27;;;;;;;57.88;25.67;;;;;;;;;;8434617;28;20048;-75
2021/12/11 01:01:33;;;;;;;56.63;24.40;;;;;;;;;;8438019;28;20486;-75
2021/12/11 01:05:41;;;;;;;48.55;22.25;;;;;;;;;;8441138;28;20050;-75
2021/12/11 01:09:48;;;;;;;48.33;20.40;;;;;;;;;;8437089;28;20043;-76
2021/12/11 01:14:06;;;;;;;64.70;24.25;;;;;;;;;;8444777;28;20498;-76
2021/12/11 01:18:22;;;;;;;53.10;20.52;;;;;;;;;;8461067;28;20122;-72
2021/12/11 01:22:33;;;;;;;63.50;22.27;;;;;;;;;;8437164;28;20046;-73
2021/12/11 01:26:39;;;;;;;45.22;21.92;;;;;;;;;;8453594;28;20047;-72
2021/12/11 01:30:44;;;;;;;61.35;21.05;;;;;;;;;;8449832;28;20040;-74
2021/12/11 01:34:47;;;;;;;53.13;22.42;;;;;;;;;;8442333;28;20051;-76
2021/12/11 01:38:57;;;;;;;67.22;22.02;;;;;;;;;;8448686;28;20405;-75
2021/12/11 01:43:00;;;;;;;66.70;23.92;;;;;;;;;;8443853;28;20067;-75
2021/12/11 01:47:06;;;;;;;52.33;21.25;;;;;;;;;;8463350;28;20047;-77
2021/12/11 01:51:13;;;;;;;59.00;25.13;;;;;;;;;;8447419;28;20070;-74
2021/12/11 01:55:24;;;;;;;60.20;25.58;;;;;;;;;;8438300;28;20081;-75
2021/12/11 01:59:29;;;;;;;54.45;23.73;;;;;;;;;;8441179;28;20048;-74
2021/12/11 02:03:35;;;;;;;57.05;23.65;;;;;;;;;;8450570;28;20055;-75
2021/12/11 02:07:48;;;;;;;70.03;25.13;;;;;;;;;;8462657;28;20044;-76
2021/12/11 02:12:02;;;;;;;50.88;18.90;;;;;;;;;;8449625;28;20044;-75
2021/12/11 02:16:06;;;;;;;47.53;20.15;;;;;;;;;;8458097;28;20051;-76
2021/12/11 02:20:12;;;;;;;39.65;18.75;;;;;;;;;;8443229;28;20048;-76
2021/12/11 02:24:20;;;;;;;41.75;16.83;;;;;;;;;;8445305;28;20059;-76
2021/12/11 02:28:30;;;;;;;32.40;15.25;;;;;;;;;;8447257;28;20036;-75
2021/12/11 02:32:40;;;;;;;32.38;15.07;;;;;;;;;;8448855;28;20122;-75
2021/12/11 02:36:50;;;;;;;40.17;15.90;;;;;;;;;;8459786;28;20039;-76
2021/12/11 02:40:58;;;;;;;41.83;16.30;;;;;;;;;;8435987;28;20060;-76
2021/12/11 02:45:08;;;;;;;31.40;14.93;;;;;;;;;;8435576;28;20052;-75
2021/12/11 02:49:17;;;;;;;36.17;14.98;;;;;;;;;;8460450;28;20148;-76
2021/12/11 02:53:24;;;;;;;35.00;15.75;;;;;;;;;;8459690;28;20036;-77
2021/12/11 02:57:30;;;;;;;43.67;16.00;;;;;;;;;;8455863;28;20043;-76
2021/12/11 03:01:37;;;;;;;42.13;16.23;;;;;;;;;;8451259;28;20047;-75
2021/12/11 03:05:51;;;;;;;35.20;16.13;;;;;;;;;;8449455;28;20043;-76
2021/12/11 03:09:57;;;;;;;37.60;15.70;;;;;;;;;;8450648;28;20055;-74
2021/12/11 03:14:04;;;;;;;28.65;15.07;;;;;;;;;;8552210;22;20120;-78
2021/12/11 03:18:08;;;;;;;35.80;16.52;;;;;;;;;;8333888;28;20484;-76
2021/12/11 03:22:14;;;;;;;40.63;15.55;;;;;;;;;;8345140;28;20487;-76
2021/12/11 03:26:17;;;;;;;41.47;16.38;;;;;;;;;;8332436;28;20049;-73
2021/12/11 03:30:25;;;;;;;30.15;14.65;;;;;;;;;;8323795;28;20042;-74
2021/12/11 03:34:30;;;;;;;28.65;13.32;;;;;;;;;;8320465;28;20052;-75
2021/12/11 03:38:34;;;;;;;40.33;17.17;;;;;;;;;;8337994;28;20069;-76
2021/12/11 03:42:40;;;;;;;45.63;17.80;;;;;;;;;;8331311;28;20404;-81
2021/12/11 03:46:52;;;;;;;39.35;15.70;;;;;;;;;;8327252;28;20037;-72
2021/12/11 03:50:56;;;;;;;30.67;15.85;;;;;;;;;;8325424;28;20492;-74
2021/12/11 03:54:58;;;;;;;39.17;17.88;;;;;;;;;;8323472;28;20132;-80
2021/12/11 03:59:08;;;;;;;31.98;13.90;;;;;;;;;;8330089;28;20052;-74
2021/12/11 04:03:15;;;;;;;37.13;15.88;;;;;;;;;;8323994;28;20045;-73
2021/12/11 04:07:22;;;;;;;41.80;16.35;;;;;;;;;;8301078;28;20050;-80
2021/12/11 04:11:30;;;;;;;42.08;15.80;;;;;;;;;;8305023;28;20073;-73
2021/12/11 04:15:34;;;;;;;41.55;15.90;;;;;;;;;;8318060;28;20104;-74
2021/12/11 04:19:40;;;;;;;34.40;15.85;;;;;;;;;;8316254;28;20493;-73
2021/12/11 04:23:43;;;;;;;30.42;13.77;;;;;;;;;;8319878;28;20045;-74
2021/12/11 04:27:47;;;;;;;41.92;16.00;;;;;;;;;;8304014;28;20690;-74
2021/12/11 04:31:51;;;;;;;43.13;16.27;;;;;;;;;;8311624;28;20054;-80
2021/12/11 04:35:55;;;;;;;79.00;28.80;;;;;;;;;;8331862;28;20124;-73
2021/12/11 04:40:03;;;;;;;60.67;22.52;;;;;;;;;;8318783;28;20046;-79
2021/12/11 04:44:09;;;;;;;65.47;22.02;;;;;;;;;;8317196;28;20100;-74
2021/12/11 04:48:20;;;;;;;41.47;18.25;;;;;;;;;;8332083;28;20049;-75
2021/12/11 04:52:50;;;;;;;48.20;18.55;;;;;;;;;;8330863;28;20053;-75
2021/12/11 04:57:23;;;;;;;53.03;21.67;;;;;;;;;;8331774;28;20054;-79
2021/12/11 05:01:46;;;;;;;54.15;21.58;;;;;;;;;;8323144;28;20056;-75
2021/12/11 05:06:01;;;;;;;75.65;25.15;;;;;;;;;;8319916;28;20046;-74
2021/12/11 05:10:14;;;;;;;85.05;27.70;;;;;;;;;;8303382;28;20073;-75
2021/12/11 05:14:19;;;;;;;77.38;26.67;;;;;;;;;;8308377;28;20061;-72
2021/12/11 05:18:25;;;;;;;68.93;24.08;;;;;;;;;;8316037;28;20088;-76
2021/12/11 05:22:28;;;;;;;87.50;27.70;;;;;;;;;;8318538;28;20045;-74
2021/12/11 05:26:33;;;;;;;75.03;26.25;;;;;;;;;;8298584;28;20045;-77
2021/12/11 05:30:45;;;;;;;96.50;31.92;;;;;;;;;;8310189;28;20045;-74
2021/12/11 05:34:49;;;;;;;84.43;28.33;;;;;;;;;;8316894;28;20054;-73
2021/12/11 05:38:52;;;;;;;71.97;25.17;;;;;;;;;;8299573;28;20065;-73
2021/12/11 05:42:57;;;;;;;85.03;28.52;;;;;;;;;;8304118;28;20053;-75
2021/12/11 05:47:02;;;;;;;79.35;27.15;;;;;;;;;;8323888;28;20053;-73
2021/12/11 05:51:09;;;;;;;71.70;25.88;;;;;;;;;;8318674;28;20046;-75
2021/12/11 05:55:16;;;;;;;88.00;26.33;;;;;;;;;;8304394;28;20052;-73
2021/12/11 05:59:21;;;;;;;84.65;27.38;;;;;;;;;;8313475;28;20042;-73
2021/12/11 06:03:25;;;;;;;83.13;29.15;;;;;;;;;;8318611;28;20050;-73
2021/12/11 06:07:31;;;;;;;93.97;30.58;;;;;;;;;;8310019;28;20046;-72
2021/12/11 06:11:35;;;;;;;98.63;32.80;;;;;;;;;;8304009;28;20046;-80
2021/12/11 06:15:40;;;;;;;78.38;27.65;;;;;;;;;;8303081;28;20088;-75
2021/12/11 06:19:49;;;;;;;90.53;29.60;;;;;;;;;;8301613;28;20490;-75
2021/12/11 06:23:52;;;;;;;86.30;30.98;;;;;;;;;;8311028;28;20509;-81
2021/12/11 06:27:56;;;;;;;95.00;32.65;;;;;;;;;;8326133;28;20053;-76
2021/12/11 06:32:00;;;;;;;429.85;92.97;;;;;;;;;;8320884;28;20045;-77
2021/12/11 06:36:08;;;;;;;193.55;52.53;;;;;;;;;;8312618;28;20052;-78
2021/12/11 06:40:12;;;;;;;120.50;42.30;;;;;;;;;;8326237;28;20048;-77
2021/12/11 06:44:15;;;;;;;117.90;40.10;;;;;;;;;;8313133;28;20053;-76
2021/12/11 06:48:19;;;;;;;142.40;46.38;;;;;;;;;;8306967;28;20062;-77
2021/12/11 06:52:27;;;;;;;129.85;39.72;;;;;;;;;;8313296;28;20397;-77
2021/12/11 06:56:30;;;;;;;100.88;36.22;;;;;;;;;;8312200;28;20132;-77
2021/12/11 07:00:34;;;;;;;125.00;42.67;;;;;;;;;;8314728;28;20408;-78
2021/12/11 07:04:38;;;;;;;118.57;39.38;;;;;;;;;;8315302;28;20072;-75
2021/12/11 07:08:42;;;;;;;113.50;37.45;;;;;;;;;;8317037;28;20099;-75
2021/12/11 07:12:46;;;;;;;133.38;42.05;;;;;;;;;;8311830;28;20127;-74
2021/12/11 07:16:49;;;;;;;94.78;30.38;;;;;;;;;;8315109;28;20121;-75
2021/12/11 07:20:54;;;;;;;77.68;26.52;;;;;;;;;;8317036;28;20056;-74
2021/12/11 07:25:02;;;;;;;74.40;28.60;;;;;;;;;;8320122;28;20042;-77
2021/12/11 07:29:08;;;;;;;96.85;33.95;;;;;;;;;;8312101;28;20046;-76
2021/12/11 07:33:13;;;;;;;89.50;32.65;;;;;;;;;;8321625;28;20046;-75
2021/12/11 07:37:17;;;;;;;93.65;33.42;;;;;;;;;;8328104;28;20076;-77
2021/12/11 07:41:22;;;;;;;75.05;28.92;;;;;;;;;;8312727;28;20041;-75
2021/12/11 07:45:26;;;;;;;81.85;30.85;;;;;;;;;;8316230;28;20042;-76
2021/12/11 07:49:29;;;;;;;88.50;31.55;;;;;;;;;;8304699;28;20042;-76
2021/12/11 07:53:35;;;;;;;93.25;35.33;;;;;;;;;;8311767;28;20121;-75
2021/12/11 07:57:38;;;;;;;130.68;43.80;;;;;;;;;;8310059;28;20037;-74
2021/12/11 08:01:44;;;;;;;116.40;39.75;;;;;;;;;;8317473;28;20128;-76
2021/12/11 08:05:51;;;;;;;108.35;42.10;;;;;;;;;;8305425;28;20042;-74
2021/12/11 08:09:56;;;;;;;113.75;46.88;;;;;;;;;;8330841;28;20125;-76
2021/12/11 08:14:00;;;;;;;134.73;50.60;;;;;;;;;;8307858;28;20046;-74
2021/12/11 08:18:06;;;;;;;84.63;34.20;;;;;;;;;;8330095;28;20050;-74
2021/12/11 08:22:10;;;;;;;75.63;29.83;;;;;;;;;;8332486;28;20045;-74
2021/12/11 08:26:20;;;;;;;122.32;37.58;;;;;;;;;;8302194;28;20501;-74
2021/12/11 08:30:25;;;;;;;104.63;35.60;;;;;;;;;;8302138;28;20069;-74
2021/12/11 08:34:29;;;;;;;101.25;34.67;;;;;;;;;;8324892;28;20042;-75
2021/12/11 08:38:32;;;;;;;74.95;32.08;;;;;;;;;;8313007;28;20041;-75
2021/12/11 08:42:38;;;;;;;97.57;37.40;;;;;;;;;;8312170;28;20046;-75
2021/12/11 08:46:49;;;;;;;101.88;36.03;;;;;;;;;;8317644;28;20046;-75
2021/12/11 08:51:02;;;;;;;127.45;47.40;;;;;;;;;;8302336;28;20136;-75
2021/12/11 08:55:13;;;;;;;137.20;50.17;;;;;;;;;;8279796;28;20057;-74
2021/12/11 08:59:20;;;;;;;139.85;48.28;;;;;;;;;;8300928;28;20057;-75
2021/12/11 09:03:29;;;;;;;164.52;57.47;;;;;;;;;;8297210;28;20445;-75
2021/12/11 09:07:37;;;;;;;136.35;54.25;;;;;;;;;;8311458;28;20459;-75
2021/12/11 09:11:47;;;;;;;105.10;45.33;;;;;;;;;;8310207;28;20075;-75
2021/12/11 09:15:55;;;;;;;146.10;53.50;;;;;;;;;;8315627;28;20064;-75
2021/12/11 09:20:07;;;;;;;107.22;42.15;;;;;;;;;;8321332;28;20072;-74
2021/12/11 09:24:14;;;;;;;139.63;53.37;;;;;;;;;;8304657;28;20137;-74
2021/12/11 09:28:21;;;;;;;122.45;46.80;;;;;;;;;;8298646;28;20056;-75
2021/12/11 09:32:30;;;;;;;132.85;58.05;;;;;;;;;;8299586;28;20073;-75
2021/12/11 09:36:42;;;;;;;120.00;51.83;;;;;;;;;;8281288;28;20054;-75
2021/12/11 09:40:55;;;;;;;107.63;44.90;;;;;;;;;;8290180;28;20076;-74
2021/12/11 09:45:05;;;;;;;96.80;39.72;;;;;;;;;;8322131;28;20041;-74
2021/12/11 09:49:10;;;;;;;73.47;30.92;;;;;;;;;;8316945;28;20058;-73
2021/12/11 09:53:16;;;;;;;89.13;37.97;;;;;;;;;;8322182;28;20052;-76
2021/12/11 09:57:22;;;;;;;107.78;42.70;;;;;;;;;;8312473;28;20048;-74
2021/12/11 10:01:32;;;;;;;77.43;32.22;;;;;;;;;;8318478;28;20535;-74
2021/12/11 10:05:43;;;;;;;63.92;29.10;;;;;;;;;;8313500;28;20474;-74
2021/12/11 10:09:51;;;;;;;62.10;27.80;;;;;;;;;;8313164;28;20052;-75
2021/12/11 10:13:56;;;;;;;77.70;30.40;;;;;;;;;;8319823;28;20131;-75
2021/12/11 10:18:06;;;;;;;92.28;37.25;;;;;;;;;;8315006;28;20045;-74
2021/12/11 10:22:20;;;;;;;85.20;37.22;;;;;;;;;;8315991;28;20477;-74
2021/12/11 10:26:26;;;;;;;72.80;31.70;;;;;;;;;;8313095;28;20401;-75
2021/12/11 10:30:35;;;;;;;82.45;36.95;;;;;;;;;;8312550;28;20057;-74
2021/12/11 10:34:46;;;;;;;116.68;43.53;;;;;;;;;;8313691;28;20385;-75
2021/12/11 10:38:51;;;;;;;76.10;31.20;;;;;;;;;;8314932;28;20046;-74
2021/12/11 10:42:58;;;;;;;61.88;26.70;;;;;;;;;;8310129;28;20045;-75
2021/12/11 10:47:03;;;;;;;100.72;38.63;;;;;;;;;;8316049;28;20065;-75
2021/12/11 10:51:15;;;;;;;63.50;26.77;;;;;;;;;;8310848;28;20049;-75
2021/12/11 10:55:24;;;;;;;78.93;34.50;;;;;;;;;;8308495;28;20065;-76
2021/12/11 10:59:35;;;;;;;137.52;56.72;;;;;;;;;;8316617;28;20054;-76
2021/12/11 11:03:42;;;;;;;165.50;64.00;;;;;;;;;;8317509;28;20052;-75
2021/12/11 11:07:50;;;;;;;69.70;32.33;;;;;;;;;;8313121;28;20038;-76
2021/12/11 11:12:02;;;;;;;58.13;24.42;;;;;;;;;;8315899;28;20116;-77
2021/12/11 11:16:07;;;;;;;77.25;32.40;;;;;;;;;;8303857;28;20069;-77
2021/12/11 11:20:15;;;;;;;258.65;100.35;;;;;;;;;;8314691;28;20057;-77
2021/12/11 11:24:21;;;;;;;71.13;30.58;;;;;;;;;;8314115;28;20061;-77
2021/12/11 11:28:28;;;;;;;58.65;26.50;;;;;;;;;;8302863;28;20088;-77
2021/12/11 11:32:33;;;;;;;57.22;29.50;;;;;;;;;;8316457;28;20046;-77
2021/12/11 11:36:37;;;;;;;88.82;49.38;;;;;;;;;;8315920;28;20049;-77
2021/12/11 11:40:48;;;;;;;74.10;33.97;;;;;;;;;;8330845;28;20481;-75
2021/12/11 11:44:54;;;;;;;57.88;24.83;;;;;;;;;;8317582;28;20042;-75
2021/12/11 11:49:03;;;;;;;61.88;26.40;;;;;;;;;;8328200;28;20037;-76
2021/12/11 11:53:07;;;;;;;55.50;25.42;;;;;;;;;;8322277;28;20049;-76
2021/12/11 11:57:16;;;;;;;61.53;26.95;;;;;;;;;;8312650;28;20416;-75
2021/12/11 12:01:28;;;;;;;74.70;32.45;;;;;;;;;;8305594;28;20058;-74
2021/12/11 12:05:36;;;;;;;79.07;37.33;;;;;;;;;;8309307;28;20052;-73
2021/12/11 12:09:42;;;;;;;76.75;31.08;;;;;;;;;;8300680;28;20053;-75
2021/12/11 12:13:53;;;;;;;68.38;32.28;;;;;;;;;;8307786;28;20050;-75
2021/12/11 12:17:58;;;;;;;70.95;32.03;;;;;;;;;;8313757;28;20136;-75
2021/12/11 12:22:53;;;;;;;130.10;48.70;;;;;;;;;;8308631;28;20056;-76
2021/12/11 12:27:19;;;;;;;113.95;47.55;;;;;;;;;;8301689;28;20473;-75
2021/12/11 12:31:27;;;;;;;105.88;42.22;;;;;;;;;;8319031;28;20068;-75
2021/12/11 12:35:34;;;;;;;172.77;53.08;;;;;;;;;;8319072;28;20091;-74
2021/12/11 12:39:44;;;;;;;101.38;41.30;;;;;;;;;;8309124;28;20509;-76
2021/12/11 12:44:22;;;;;;;93.88;39.97;;;;;;;;;;8326236;28;20508;-78
2021/12/11 12:48:28;;;;;;;75.00;31.58;;;;;;;;;;8304955;28;20049;-76
2021/12/11 12:52:34;;;;;;;79.07;32.90;;;;;;;;;;8308849;28;20041;-75
2021/12/11 12:56:45;;;;;;;83.40;37.67;;;;;;;;;;8308845;28;20049;-75
2021/12/11 13:01:03;;;;;;;78.47;32.47;;;;;;;;;;8320747;28;20046;-76
2021/12/11 13:05:23;;;;;;;84.32;34.05;;;;;;;;;;8308406;28;20068;-75
2021/12/11 13:09:34;;;;;;;74.93;35.30;;;;;;;;;;8330516;28;20049;-74
2021/12/11 13:13:40;;;;;;;158.23;62.30;;;;;;;;;;8312867;28;20050;-75
2021/12/11 13:17:50;;;;;;;111.95;46.45;;;;;;;;;;8308127;28;20041;-76
2021/12/11 13:22:01;;;;;;;150.23;62.92;;;;;;;;;;8308750;28;20045;-78
2021/12/11 13:26:09;;;;;;;170.85;62.53;;;;;;;;;;8319643;28;20469;-76
2021/12/11 13:30:16;;;;;;;136.80;55.20;;;;;;;;;;8312167;28;20091;-76
2021/12/11 13:34:21;;;;;;;125.75;53.05;;;;;;;;;;8316916;28;20095;-75
2021/12/11 13:38:29;;;;;;;114.07;46.53;;;;;;;;;;8307292;28;20050;-74
2021/12/11 13:48:05;;;;;;;108.13;44.50;;;;;;;;;;8311004;28;20095;-76
2021/12/11 13:52:45;;;;;;;135.40;53.67;;;;;;;;;;8322028;28;20051;-76
2021/12/11 14:06:14;;;;;;;110.68;43.67;;;;;;;;;;8562886;22;20016;-77
2021/12/11 14:10:54;;;;;;;116.85;41.97;;;;;;;;;;8236502;28;20054;-76
2021/12/11 14:15:06;;;;;;;128.63;49.80;;;;;;;;;;8228359;28;20081;-77
2021/12/11 14:19:12;;;;;;;;;;;;;;;;;;8224079;28;20125;-80
2021/12/11 14:23:20;;;;;;;110.40;44.42;;;;;;;;;;8242011;28;19922;-81
2021/12/11 14:27:24;;;;;;;127.65;49.03;;;;;;;;;;8242124;28;20059;-80
2021/12/11 14:31:29;;;;;;;137.07;53.58;;;;;;;;;;8242233;28;20047;-80
2021/12/11 14:35:41;;;;;;;153.88;54.00;;;;;;;;;;8242948;28;20057;-79
2021/12/11 14:39:48;;;;;;;142.70;55.95;;;;;;;;;;8231381;28;20521;-79
2021/12/11 14:43:53;;;;;;;143.80;53.67;;;;;;;;;;8215576;28;20051;-80
2021/12/11 14:47:57;;;;;;;157.30;59.38;;;;;;;;;;8216759;28;20058;-80
2021/12/11 14:52:05;;;;;;;158.65;59.60;;;;;;;;;;8219945;28;20130;-80
2021/12/11 14:56:18;;;;;;;187.77;68.78;;;;;;;;;;8222870;28;20125;-79
2021/12/11 15:00:27;;;;;;;152.52;58.92;;;;;;;;;;8236054;28;20122;-78
2021/12/11 15:04:35;;;;;;;162.57;67.53;;;;;;;;;;8235202;28;20081;-76
2021/12/11 15:08:42;;;;;;;149.10;57.13;;;;;;;;;;8232288;28;20574;-80
2021/12/11 15:12:45;;;;;;;192.93;74.35;;;;;;;;;;8223261;28;20046;-80
2021/12/11 15:16:52;;;;;;;224.40;84.13;;;;;;;;;;8233562;28;20507;-80
2021/12/11 15:20:58;;;;;;;287.38;101.50;;;;;;;;;;8235057;28;20105;-78
2021/12/11 15:25:06;;;;;;;274.58;98.55;;;;;;;;;;8226578;28;20057;-80
2021/12/11 15:29:13;;;;;;;157.77;58.70;;;;;;;;;;8227672;28;20054;-80
2021/12/11 15:33:17;;;;;;;184.55;65.72;;;;;;;;;;8234925;28;20047;-76
2021/12/11 15:37:20;;;;;;;181.70;64.05;;;;;;;;;;8235201;28;20142;-77
2021/12/11 15:41:26;;;;;;;164.55;59.60;;;;;;;;;;8234840;28;20069;-78
2021/12/11 15:45:31;;;;;;;164.80;57.22;;;;;;;;;;8221863;28;20039;-78
2021/12/11 15:49:36;;;;;;;189.75;68.88;;;;;;;;;;8232957;28;20061;-79
2021/12/11 15:53:40;;;;;;;161.80;54.40;;;;;;;;;;8234298;28;20129;-76
2021/12/11 15:57:46;;;;;;;119.15;45.50;;;;;;;;;;8234869;28;20097;-80
2021/12/11 16:01:51;;;;;;;105.28;39.53;;;;;;;;;;8234046;28;20046;-76
2021/12/11 16:05:56;;;;;;;101.78;36.75;;;;;;;;;;8233897;28;20511;-76
2021/12/11 16:10:00;;;;;;;86.25;34.42;;;;;;;;;;8232585;28;20524;-79
2021/12/11 16:14:07;;;;;;;88.35;35.22;;;;;;;;;;8233110;28;20070;-81
2021/12/11 16:18:12;;;;;;;77.25;30.50;;;;;;;;;;8233098;28;20046;-76
2021/12/11 16:22:20;;;;;;;78.93;33.30;;;;;;;;;;8233222;28;20047;-74
2021/12/11 16:26:28;;;;;;;76.97;31.60;;;;;;;;;;8223597;28;20134;-74
2021/12/11 16:30:36;;;;;;;80.75;31.95;;;;;;;;;;8218597;28;20159;-74
2021/12/11 16:34:43;;;;;;;97.05;37.00;;;;;;;;;;8215256;28;20043;-81
2021/12/11 16:38:47;;;;;;;101.95;40.03;;;;;;;;;;8223645;28;20047;-81
2021/12/11 16:43:04;;;;;;;113.10;42.97;;;;;;;;;;8218073;28;20058;-80
2021/12/11 16:47:11;;;;;;;127.32;45.50;;;;;;;;;;8211300;28;20053;-73
2021/12/11 16:51:18;;;;;;;116.40;42.63;;;;;;;;;;8214896;28;20067;-74
2021/12/11 16:55:25;;;;;;;113.22;42.33;;;;;;;;;;8226753;28;20049;-75
2021/12/11 16:59:29;;;;;;;121.88;43.53;;;;;;;;;;8220518;28;20043;-74
2021/12/11 17:03:32;;;;;;;130.93;43.25;;;;;;;;;;8212931;28;20077;-74
2021/12/11 17:07:36;;;;;;;113.25;43.17;;;;;;;;;;8231361;28;20058;-75
2021/12/11 17:11:41;;;;;;;101.47;39.42;;;;;;;;;;8225827;28;20038;-73
2021/12/11 17:15:45;;;;;;;81.32;35.20;;;;;;;;;;8227985;28;20061;-73
2021/12/11 17:19:55;;;;;;;98.43;38.47;;;;;;;;;;8229416;28;20047;-73
2021/12/11 17:24:01;;;;;;;113.38;41.50;;;;;;;;;;8217881;28;20055;-73
2021/12/11 17:28:11;;;;;;;100.88;39.75;;;;;;;;;;8209919;28;20073;-73
2021/12/11 17:32:18;;;;;;;89.50;34.55;;;;;;;;;;8226115;28;20077;-73
2021/12/11 17:36:23;;;;;;;94.05;32.95;;;;;;;;;;8216113;28;20047;-73
2021/12/11 17:40:33;;;;;;;87.65;32.47;;;;;;;;;;8219665;28;20066;-75
2021/12/11 17:44:44;;;;;;;100.72;37.90;;;;;;;;;;8214331;28;20046;-73
2021/12/11 17:48:51;;;;;;;105.53;41.63;;;;;;;;;;8215994;28;20151;-73
2021/12/11 17:52:54;;;;;;;93.72;34.42;;;;;;;;;;8224448;28;20133;-73
2021/12/11 17:56:59;;;;;;;74.57;31.63;;;;;;;;;;8216488;28;20384;-73
2021/12/11 18:01:09;;;;;;;76.03;30.42;;;;;;;;;;8216597;28;20086;-74
2021/12/11 18:05:16;;;;;;;77.43;27.95;;;;;;;;;;8231276;28;20047;-73
2021/12/11 18:09:22;;;;;;;66.15;26.90;;;;;;;;;;8228944;28;20055;-73
2021/12/11 18:13:32;;;;;;;73.93;28.83;;;;;;;;;;8230728;28;20046;-74
2021/12/11 18:17:41;;;;;;;94.15;34.63;;;;;;;;;;8226104;28;20475;-79
2021/12/11 18:21:50;;;;;;;115.60;42.53;;;;;;;;;;8220259;28;20038;-73
2021/12/11 18:25:59;;;;;;;84.57;33.33;;;;;;;;;;8226962;28;20413;-74
2021/12/11 18:30:08;;;;;;;95.80;34.88;;;;;;;;;;8220848;28;20051;-73
2021/12/11 18:34:16;;;;;;;84.25;32.75;;;;;;;;;;8221210;28;20051;-74
2021/12/11 18:38:21;;;;;;;88.15;30.23;;;;;;;;;;8231414;28;20042;-73
2021/12/11 18:42:27;;;;;;;79.78;29.00;;;;;;;;;;8234249;28;20042;-73
2021/12/11 18:46:35;;;;;;;74.45;27.73;;;;;;;;;;8221631;28;20422;-73
2021/12/11 18:50:42;;;;;;;78.85;27.58;;;;;;;;;;8225516;28;20043;-73
2021/12/11 18:54:51;;;;;;;66.65;26.48;;;;;;;;;;8229364;28;20127;-74
2021/12/11 18:58:58;;;;;;;68.28;28.08;;;;;;;;;;8219250;28;20055;-74
2021/12/11 19:03:10;;;;;;;78.82;28.48;;;;;;;;;;8223096;28;20542;-74
2021/12/11 19:07:28;;;;;;;106.38;35.78;;;;;;;;;;8219015;28;20059;-74
2021/12/11 19:11:44;;;;;;;104.95;37.95;;;;;;;;;;8238611;28;20053;-74
2021/12/11 19:15:56;;;;;;;173.05;57.90;;;;;;;;;;8225662;28;20477;-73
2021/12/11 19:20:06;;;;;;;167.02;54.70;;;;;;;;;;8229838;28;20054;-74
2021/12/11 19:24:22;;;;;;;;;;;;;;;;;;8229687;28;20042;-75
2021/12/11 19:28:36;;;;;;;108.88;38.67;;;;;;;;;;8239619;28;19926;-74
2021/12/11 19:32:43;;;;;;;97.80;37.58;;;;;;;;;;8240654;28;20066;-75
2021/12/11 19:36:51;;;;;;;100.40;37.30;;;;;;;;;;8239147;28;20068;-73
2021/12/11 19:41:01;;;;;;;91.85;36.03;;;;;;;;;;8231798;28;20137;-75
2021/12/11 19:45:24;;;;;;;103.40;37.27;;;;;;;;;;8234872;28;20057;-73
2021/12/11 19:49:32;;;;;;;103.50;37.97;;;;;;;;;;8229216;28;20039;-74
2021/12/11 19:53:42;;;;;;;93.82;34.92;;;;;;;;;;8218280;28;20103;-73
2021/12/11 19:57:51;;;;;;;107.70;37.75;;;;;;;;;;8223732;28;20039;-74
2021/12/11 20:02:01;;;;;;;131.48;45.08;;;;;;;;;;8226497;28;20058;-74
2021/12/11 20:06:10;;;;;;;122.75;41.55;;;;;;;;;;8233505;28;20051;-76
2021/12/11 20:10:22;;;;;;;115.45;38.22;;;;;;;;;;8228984;28;20402;-78
2021/12/11 20:14:33;;;;;;;116.35;43.15;;;;;;;;;;8231492;28;20129;-78
2021/12/11 20:18:49;;;;;;;150.57;48.10;;;;;;;;;;8216097;28;20129;-75
2021/12/11 20:22:57;;;;;;;219.45;66.13;;;;;;;;;;8208714;28;20142;-74
2021/12/11 20:27:08;;;;;;;193.15;58.58;;;;;;;;;;8215677;28;20094;-77
2021/12/11 20:31:26;;;;;;;147.65;45.90;;;;;;;;;;8235160;28;20047;-73
2021/12/11 20:35:38;;;;;;;121.43;42.78;;;;;;;;;;8228560;28;20047;-73
2021/12/11 20:39:48;;;;;;;221.18;62.78;;;;;;;;;;8205455;28;20039;-73
2021/12/11 20:43:59;;;;;;;219.75;63.95;;;;;;;;;;8221323;28;20042;-73
2021/12/11 20:48:08;;;;;;;190.88;58.50;;;;;;;;;;8221200;28;20062;-74
2021/12/11 20:52:15;;;;;;;202.55;57.58;;;;;;;;;;8223942;28;20086;-75
2021/12/11 20:56:21;;;;;;;154.27;48.08;;;;;;;;;;8207213;28;20139;-74
2021/12/11 21:00:29;;;;;;;257.95;77.95;;;;;;;;;;8209907;28;20053;-74
2021/12/11 21:04:37;;;;;;;199.35;62.08;;;;;;;;;;8210071;28;20051;-72
2021/12/11 21:08:44;;;;;;;305.30;80.07;;;;;;;;;;8215546;28;20487;-74
2021/12/11 21:12:52;;;;;;;200.90;64.65;;;;;;;;;;8221525;28;20479;-72
2021/12/11 21:16:59;;;;;;;213.07;60.60;;;;;;;;;;8214216;28;20051;-73
2021/12/11 21:21:10;;;;;;;152.25;48.92;;;;;;;;;;8202214;29;20055;-73
2021/12/11 21:25:18;;;;;;;146.48;48.58;;;;;;;;;;8208523;28;20470;-74
2021/12/11 21:29:23;;;;;;;101.25;37.40;;;;;;;;;;8230995;28;20047;-72
2021/12/11 21:33:34;;;;;;;173.10;60.25;;;;;;;;;;8201202;28;20239;-74
2021/12/11 21:37:44;;;;;;;133.88;44.67;;;;;;;;;;8205005;28;20121;-79
2021/12/11 21:41:53;;;;;;;129.40;43.80;;;;;;;;;;8218005;28;20502;-72
2021/12/11 21:46:04;;;;;;;120.82;38.42;;;;;;;;;;8229004;28;20055;-74
2021/12/11 21:50:16;;;;;;;124.50;40.22;;;;;;;;;;8209632;28;20047;-72
2021/12/11 21:54:29;;;;;;;269.20;96.07;;;;;;;;;;8212700;28;20071;-72
2021/12/11 21:58:37;;;;;;;172.45;56.53;;;;;;;;;;8212404;28;20078;-74
2021/12/11 22:02:47;;;;;;;176.57;54.45;;;;;;;;;;8212768;28;20046;-73
2021/12/11 22:06:55;;;;;;;133.98;45.20;;;;;;;;;;8213546;28;20138;-75
2021/12/11 22:11:05;;;;;;;198.73;58.40;;;;;;;;;;8205603;28;20045;-73
2021/12/11 22:15:13;;;;;;;172.07;53.70;;;;;;;;;;8228300;28;20125;-72
2021/12/11 22:19:21;;;;;;;157.85;49.05;;;;;;;;;;8239917;28;20479;-73
2021/12/11 22:23:28;;;;;;;162.52;50.45;;;;;;;;;;8210533;28;20407;-73
2021/12/11 22:27:36;;;;;;;163.93;53.30;;;;;;;;;;8207744;29;20071;-73
2021/12/11 22:31:43;;;;;;;153.15;48.03;;;;;;;;;;8207200;29;20070;-73
2021/12/11 22:35:50;;;;;;;143.93;47.08;;;;;;;;;;8207085;29;20071;-73
2021/12/11 22:39:57;;;;;;;168.15;52.13;;;;;;;;;;8206935;29;20063;-74
2021/12/11 22:44:10;;;;;;;142.27;45.67;;;;;;;;;;8206884;29;20133;-72
2021/12/11 22:48:16;;;;;;;163.25;46.50;;;;;;;;;;8213053;28;20042;-75
2021/12/11 22:52:22;;;;;;;168.50;51.78;;;;;;;;;;8221663;28;20043;-73
2021/12/11 22:56:28;;;;;;;176.98;55.08;;;;;;;;;;8238022;28;20047;-77
2021/12/11 23:00:40;;;;;;;177.40;58.47;;;;;;;;;;8238344;28;20051;-73
2021/12/11 23:04:47;;;;;;;202.45;61.70;;;;;;;;;;8238166;28;20077;-73
2021/12/11 23:08:51;;;;;;;194.63;56.58;;;;;;;;;;8237998;28;20101;-73
2021/12/11 23:12:59;;;;;;;163.73;47.88;;;;;;;;;;8237957;28;20108;-73
2021/12/11 23:17:08;;;;;;;174.23;50.90;;;;;;;;;;8236882;28;20054;-74
2021/12/11 23:21:18;;;;;;;149.23;48.63;;;;;;;;;;8225853;28;20047;-80
2021/12/11 23:25:26;;;;;;;142.02;47.67;;;;;;;;;;8213225;28;20051;-73
2021/12/11 23:29:31;;;;;;;162.50;48.83;;;;;;;;;;8237493;28;20054;-74
2021/12/11 23:33:40;;;;;;;175.88;50.85;;;;;;;;;;8237346;28;20047;-73
2021/12/11 23:37:48;;;;;;;165.52;47.33;;;;;;;;;;8232178;28;20043;-73
2021/12/11 23:41:55;;;;;;;176.57;52.03;;;;;;;;;;8206404;28;20054;-74
2021/12/11 23:46:02;;;;;;;165.18;47.40;;;;;;;;;;8212533;28;20475;-73
2021/12/11 23:50:10;;;;;;;179.23;53.33;;;;;;;;;;8204800;29;20130;-82
2021/12/11 23:54:17;;;;;;;177.45;52.72;;;;;;;;;;8204711;29;20050;-74
2021/12/11 23:58:22;;;;;;;212.45;56.08;;;;;;;;;;8204646;29;20134;-74
